createdAt,value
2022-09-16T00:00:53.272Z,13.33
2022-09-16T00:03:38.641Z,11.00
2022-09-16T00:06:07.172Z,14.00
2022-09-16T00:08:34.873Z,12.00
2022-09-16T00:11:03.229Z,13.00
2022-09-16T00:13:31.196Z,11.33
2022-09-16T00:15:59.094Z,13.00
2022-09-16T00:18:27.076Z,11.00
2022-09-16T00:20:55.308Z,13.00
2022-09-16T00:23:23.109Z,14.00
2022-09-16T00:25:54.729Z,14.00
2022-09-16T00:28:23.416Z,13.00
2022-09-16T00:30:51.377Z,14.00
2022-09-16T00:33:20.166Z,12.00
2022-09-16T00:35:48.016Z,12.00
2022-09-16T00:38:16.113Z,12.00
2022-09-16T00:40:45.438Z,12.00
2022-09-16T00:43:14.909Z,9.50
2022-09-16T00:45:44.534Z,13.00
2022-09-16T00:48:15.872Z,12.00
2022-09-16T00:50:52.481Z,13.00
2022-09-16T00:53:22.257Z,11.67
2022-09-16T00:55:51.664Z,11.00
2022-09-16T00:58:39.939Z,12.50
2022-09-16T01:01:08.284Z,13.67
2022-09-16T01:03:40.356Z,13.00
2022-09-16T01:06:09.343Z,14.00
2022-09-16T01:08:37.718Z,13.00
2022-09-16T01:11:05.698Z,12.00
2022-09-16T01:13:34.179Z,13.00
2022-09-16T01:16:02.264Z,13.00
2022-09-16T01:18:34.332Z,12.00
2022-09-16T01:21:20.919Z,12.00
2022-09-16T01:23:54.914Z,10.00
2022-09-16T01:26:22.900Z,12.00
2022-09-16T01:29:09.299Z,13.00
2022-09-16T01:31:57.646Z,13.00
2022-09-16T01:34:44.151Z,11.67
2022-09-16T01:37:39.249Z,12.33
2022-09-16T01:40:17.089Z,11.00
2022-09-16T01:42:50.960Z,11.00
2022-09-16T01:45:39.103Z,14.00
2022-09-16T01:48:19.773Z,10.50
2022-09-16T01:50:52.111Z,12.33
2022-09-16T01:53:25.846Z,12.00
2022-09-16T01:56:03.130Z,15.00
2022-09-16T01:58:33.659Z,11.00
2022-09-16T02:01:06.809Z,12.00
2022-09-16T02:03:36.874Z,12.33
2022-09-16T02:06:13.296Z,14.00
2022-09-16T02:08:44.497Z,13.00
2022-09-16T02:11:14.501Z,11.00
2022-09-16T02:13:45.054Z,10.00
2022-09-16T02:16:21.216Z,12.00
2022-09-16T02:18:52.438Z,13.00
2022-09-16T02:21:22.810Z,13.33
2022-09-16T02:23:53.137Z,12.00
2022-09-16T02:26:25.254Z,12.00
2022-09-16T02:28:54.043Z,11.00
2022-09-16T02:31:32.485Z,12.33
2022-09-16T02:34:03.394Z,11.00
2022-09-16T02:36:32.566Z,12.00
2022-09-16T02:39:05.821Z,10.00
2022-09-16T02:41:33.648Z,10.00
2022-09-16T02:44:02.239Z,10.00
2022-09-16T02:46:32.784Z,11.00
2022-09-16T02:49:26.433Z,8.67
2022-09-16T02:51:56.968Z,10.00
2022-09-16T02:54:32.514Z,10.00
2022-09-16T02:57:00.276Z,8.00
2022-09-16T02:59:28.351Z,10.00
2022-09-16T03:01:56.345Z,11.00
2022-09-16T03:04:24.058Z,10.00
2022-09-16T03:06:51.950Z,9.00
2022-09-16T03:09:24.231Z,9.00
2022-09-16T03:12:03.637Z,8.50
2022-09-16T03:14:50.217Z,9.00
2022-09-16T03:17:25.619Z,8.00
2022-09-16T03:20:03.878Z,9.00
2022-09-16T03:22:41.555Z,10.00
2022-09-16T03:25:24.120Z,11.00
2022-09-16T03:27:56.153Z,9.00
2022-09-16T03:30:24.226Z,9.00
2022-09-16T03:32:58.660Z,10.00
2022-09-16T03:35:42.914Z,12.00
2022-09-16T03:38:12.742Z,8.33
2022-09-16T03:40:42.604Z,9.00
2022-09-16T03:43:13.807Z,9.00
2022-09-16T03:45:42.999Z,10.00
2022-09-16T03:48:11.589Z,10.00
2022-09-16T03:50:39.557Z,8.00
2022-09-16T03:53:07.427Z,10.00
2022-09-16T03:55:35.488Z,10.00
2022-09-16T03:58:03.847Z,10.50
2022-09-16T04:00:31.748Z,10.00
2022-09-16T04:03:00.510Z,10.00
2022-09-16T04:05:28.902Z,11.00
2022-09-16T04:07:56.780Z,10.00
2022-09-16T04:10:24.659Z,11.00
2022-09-16T04:12:56.609Z,9.50
2022-09-16T04:15:24.366Z,9.00
2022-09-16T04:17:52.349Z,10.00
2022-09-16T04:20:20.310Z,8.67
2022-09-16T04:22:48.167Z,9.00
2022-09-16T04:25:15.982Z,11.00
2022-09-16T04:27:44.013Z,10.00
2022-09-16T04:30:12.591Z,11.00
2022-09-16T04:32:40.250Z,10.00
2022-09-16T04:35:08.517Z,11.00
2022-09-16T04:37:36.702Z,9.00
2022-09-16T04:40:05.331Z,9.67
2022-09-16T04:42:33.149Z,8.50
2022-09-16T04:45:00.875Z,10.00
2022-09-16T04:47:29.606Z,9.00
2022-09-16T04:49:57.445Z,9.00
2022-09-16T04:52:25.237Z,8.00
2022-09-16T04:54:53.112Z,11.00
2022-09-16T04:57:20.881Z,10.00
2022-09-16T04:59:48.836Z,11.00
2022-09-16T05:02:16.817Z,12.50
2022-09-16T05:04:44.544Z,12.00
2022-09-16T05:07:12.447Z,11.00
2022-09-16T05:09:41.438Z,11.00
2022-09-16T05:12:09.298Z,11.00
2022-09-16T05:14:37.169Z,9.00
2022-09-16T05:17:05.141Z,11.00
2022-09-16T05:19:33.109Z,12.00
2022-09-16T05:22:00.850Z,11.00
2022-09-16T05:24:28.734Z,10.00
2022-09-16T05:26:56.805Z,13.00
2022-09-16T05:29:24.891Z,11.00
2022-09-16T05:31:52.651Z,12.00
2022-09-16T05:34:21.773Z,11.00
2022-09-16T05:36:50.937Z,11.00
2022-09-16T05:39:24.538Z,10.00
2022-09-16T05:41:58.299Z,11.00
2022-09-16T05:44:27.134Z,11.00
2022-09-16T05:46:55.288Z,10.00
2022-09-16T05:49:23.863Z,10.00
2022-09-16T05:51:52.632Z,14.00
2022-09-16T05:54:21.260Z,8.33
2022-09-16T05:56:49.317Z,10.00
2022-09-16T05:59:18.261Z,10.00
2022-09-16T06:01:46.038Z,9.00
2022-09-16T06:04:15.093Z,11.00
2022-09-16T06:06:44.282Z,11.00
2022-09-16T06:09:13.685Z,10.00
2022-09-16T06:11:42.973Z,10.00
2022-09-16T06:14:11.884Z,10.00
2022-09-16T06:16:40.158Z,10.00
2022-09-16T06:19:10.720Z,9.00
2022-09-16T06:21:38.994Z,9.00
2022-09-16T06:24:10.411Z,10.00
2022-09-16T06:26:39.030Z,9.33
2022-09-16T06:29:07.325Z,9.00
2022-09-16T06:31:36.330Z,9.00
2022-09-16T06:34:05.522Z,11.67
2022-09-16T06:36:34.867Z,8.00
2022-09-16T06:39:04.488Z,9.00
2022-09-16T06:41:36.132Z,10.00
2022-09-16T06:44:04.100Z,9.00
2022-09-16T06:46:32.070Z,9.00
2022-09-16T06:49:05.064Z,10.00
2022-09-16T06:51:34.727Z,8.00
2022-09-16T06:54:03.762Z,11.50
2022-09-16T06:56:31.790Z,9.50
2022-09-16T06:58:59.796Z,11.00
2022-09-16T07:01:29.777Z,10.00
2022-09-16T07:03:58.936Z,10.00
2022-09-16T07:06:57.412Z,11.33
2022-09-16T07:09:17.695Z,10.67
2022-09-16T07:11:46.067Z,10.50
2022-09-16T07:14:13.800Z,9.00
2022-09-16T07:16:42.259Z,9.00
2022-09-16T07:19:10.180Z,7.00
2022-09-16T07:21:38.049Z,7.00
2022-09-16T07:24:06.016Z,7.50
2022-09-16T07:26:34.949Z,6.00
2022-09-16T07:29:04.899Z,8.00
2022-09-16T07:31:33.997Z,0.00
2022-09-16T07:34:04.206Z,6.00
2022-09-16T07:36:35.079Z,5.00
2022-09-16T07:39:03.760Z,9.00
2022-09-16T07:41:39.612Z,8.00
2022-09-16T07:44:10.090Z,8.00
2022-09-16T07:46:37.923Z,6.00
2022-09-16T07:49:06.798Z,7.00
2022-09-16T07:51:34.872Z,4.50
2022-09-16T07:54:04.808Z,8.00
2022-09-16T07:56:34.619Z,7.00
2022-09-16T07:59:03.386Z,8.00
2022-09-16T08:01:31.629Z,8.00
2022-09-16T08:04:00.662Z,7.00
2022-09-16T08:06:30.670Z,6.50
2022-09-16T08:09:05.858Z,7.00
2022-09-16T08:11:43.404Z,6.00
2022-09-16T08:14:11.178Z,8.00
2022-09-16T08:16:39.140Z,7.00
2022-09-16T08:19:07.214Z,8.33
2022-09-16T08:21:35.085Z,7.50
2022-09-16T08:24:02.826Z,8.50
2022-09-16T08:26:31.127Z,9.00
2022-09-16T08:29:08.540Z,8.00
2022-09-16T08:31:37.997Z,9.50
2022-09-16T08:34:06.220Z,9.00
2022-09-16T08:36:34.465Z,8.00
2022-09-16T08:39:02.668Z,8.67
2022-09-16T08:41:41.747Z,8.00
2022-09-16T08:44:28.283Z,7.00
2022-09-16T08:46:59.054Z,8.00
2022-09-16T08:49:29.844Z,7.00
2022-09-16T08:51:59.041Z,8.00
2022-09-16T08:54:27.536Z,8.00
2022-09-16T08:56:58.627Z,7.33
2022-09-16T08:59:30.827Z,7.50
2022-09-16T09:02:13.447Z,8.00
2022-09-16T09:04:41.526Z,8.00
2022-09-16T09:07:19.121Z,7.00
2022-09-16T09:09:53.764Z,7.33
2022-09-16T09:12:34.125Z,6.00
2022-09-16T09:15:24.859Z,7.00
2022-09-16T09:18:16.629Z,7.00
2022-09-16T09:20:44.519Z,8.00
2022-09-16T09:23:12.385Z,8.00
2022-09-16T09:25:48.640Z,6.00
2022-09-16T09:28:21.293Z,7.33
2022-09-16T09:31:11.026Z,8.00
2022-09-16T09:33:46.914Z,6.00
2022-09-16T09:36:25.467Z,7.50
2022-09-16T09:38:53.332Z,8.00
2022-09-16T09:41:27.032Z,6.00
2022-09-16T09:44:09.682Z,6.00
2022-09-16T09:46:44.696Z,7.50
2022-09-16T09:49:14.286Z,8.00
2022-09-16T09:52:14.590Z,9.00
2022-09-16T09:54:45.344Z,8.00
2022-09-16T09:57:31.951Z,7.00
2022-09-16T10:00:18.773Z,6.67
2022-09-16T10:02:49.924Z,7.00
2022-09-16T10:05:25.973Z,7.00
2022-09-16T10:07:57.620Z,8.00
2022-09-16T10:10:27.022Z,9.00
2022-09-16T10:12:55.095Z,8.00
2022-09-16T10:15:30.270Z,8.00
2022-09-16T10:18:00.563Z,7.00
2022-09-16T10:20:33.417Z,7.00
2022-09-16T10:23:10.699Z,7.00
2022-09-16T10:25:39.010Z,8.00
2022-09-16T10:28:25.641Z,8.00
2022-09-16T10:30:55.550Z,6.00
2022-09-16T10:33:26.470Z,7.00
2022-09-16T10:36:06.005Z,9.00
2022-09-16T10:38:39.201Z,8.00
2022-09-16T10:41:15.099Z,8.00
2022-09-16T10:43:53.562Z,8.00
2022-09-16T10:46:21.615Z,8.00
2022-09-16T10:48:52.275Z,8.00
2022-09-16T10:51:30.542Z,8.00
2022-09-16T10:53:59.986Z,7.33
2022-09-16T10:56:32.567Z,8.00
2022-09-16T10:59:09.950Z,7.00
2022-09-16T11:02:01.298Z,8.33
2022-09-16T11:04:38.462Z,8.00
2022-09-16T11:07:24.857Z,7.00
2022-09-16T11:09:55.691Z,8.50
2022-09-16T11:12:26.527Z,7.00
2022-09-16T11:15:06.687Z,10.00
2022-09-16T11:17:46.018Z,8.00
2022-09-16T11:20:16.857Z,11.00
2022-09-16T11:22:44.831Z,7.00
2022-09-16T11:25:12.690Z,8.00
2022-09-16T11:27:55.537Z,7.00
2022-09-16T11:30:24.229Z,11.33
2022-09-16T11:32:55.925Z,7.00
2022-09-16T11:35:58.112Z,9.00
2022-09-16T11:38:28.823Z,10.00
2022-09-16T11:41:02.810Z,9.00
2022-09-16T11:43:30.636Z,8.50
2022-09-16T11:46:03.440Z,8.00
2022-09-16T11:48:34.095Z,8.00
2022-09-16T11:51:07.841Z,11.00
2022-09-16T11:53:44.149Z,10.00
2022-09-16T11:56:15.779Z,8.00
2022-09-16T11:58:44.309Z,8.00
2022-09-16T12:01:32.660Z,9.00
2022-09-16T12:04:24.734Z,8.00
2022-09-16T12:06:52.507Z,10.00
2022-09-16T12:09:24.982Z,10.00
2022-09-16T12:11:55.716Z,9.00
2022-09-16T12:14:31.568Z,10.67
2022-09-16T12:17:01.868Z,10.67
2022-09-16T12:19:29.755Z,8.00
2022-09-16T12:22:10.824Z,8.00
2022-09-16T12:24:47.724Z,9.67
2022-09-16T12:27:24.691Z,11.33
2022-09-16T12:29:56.712Z,10.33
2022-09-16T12:32:46.748Z,7.00
2022-09-16T12:35:16.044Z,9.00
2022-09-16T12:37:48.544Z,9.00
2022-09-16T12:40:39.944Z,15.00
2022-09-16T12:43:07.664Z,12.00
2022-09-16T12:45:38.437Z,10.50
2022-09-16T12:48:21.151Z,9.00
2022-09-16T12:50:54.887Z,10.67
2022-09-16T12:53:41.577Z,8.00
2022-09-16T12:56:26.433Z,11.00
2022-09-16T12:58:54.304Z,9.67
2022-09-16T13:01:25.087Z,11.00
2022-09-16T13:03:58.198Z,17.00
2022-09-16T13:06:30.490Z,14.00
2022-09-16T13:09:11.145Z,12.67
2022-09-16T13:12:49.105Z,17.00
2022-09-16T13:14:30.346Z,16.00
2022-09-16T13:16:59.643Z,13.67
2022-09-16T13:19:32.637Z,12.00
2022-09-16T13:22:14.326Z,9.00
2022-09-16T13:24:51.103Z,10.67
2022-09-16T13:27:27.357Z,10.33
2022-09-16T13:30:13.363Z,12.00
2022-09-16T13:32:50.651Z,13.00
2022-09-16T13:35:18.433Z,12.00
2022-09-16T13:37:46.689Z,14.00
2022-09-16T13:40:19.031Z,5.00
2022-09-16T13:42:47.229Z,11.00
2022-09-16T13:45:31.642Z,10.00
2022-09-16T13:48:03.172Z,11.00
2022-09-16T13:50:31.605Z,9.00
2022-09-16T13:53:08.807Z,10.00
2022-09-16T13:55:40.407Z,10.00
2022-09-16T13:58:20.107Z,13.00
2022-09-16T14:01:06.643Z,10.00
2022-09-16T14:03:43.932Z,11.00
2022-09-16T14:06:31.768Z,11.00
2022-09-16T14:09:03.102Z,9.00
2022-09-16T14:11:47.737Z,8.00
2022-09-16T14:14:45.915Z,8.00
2022-09-16T14:17:15.519Z,10.00
2022-09-16T14:19:46.773Z,7.00
2022-09-16T14:22:18.477Z,9.00
2022-09-16T14:24:48.397Z,11.00
2022-09-16T14:27:27.178Z,11.00
2022-09-16T14:29:59.039Z,13.50
2022-09-16T14:32:32.118Z,9.00
2022-09-16T14:35:02.853Z,11.00
2022-09-16T14:37:32.201Z,10.67
2022-09-16T14:40:14.434Z,9.00
2022-09-16T14:43:08.762Z,8.00
2022-09-16T14:45:37.534Z,11.50
2022-09-16T14:48:07.868Z,9.50
2022-09-16T14:50:44.990Z,11.00
2022-09-16T14:53:35.874Z,10.00
2022-09-16T14:56:05.726Z,9.33
2022-09-16T14:58:35.064Z,10.00
2022-09-16T15:01:13.213Z,11.00
2022-09-16T15:03:47.356Z,10.00
2022-09-16T15:06:17.097Z,12.00
2022-09-16T15:08:47.917Z,11.00
2022-09-16T15:11:43.666Z,10.00
2022-09-16T15:14:06.715Z,10.00
2022-09-16T15:16:39.974Z,9.50
2022-09-16T15:19:17.291Z,11.33
2022-09-16T15:21:45.171Z,10.67
2022-09-16T15:24:17.955Z,13.00
2022-09-16T15:26:46.859Z,10.33
2022-09-16T15:29:17.985Z,12.33
2022-09-16T15:31:46.508Z,12.00
2022-09-16T15:34:20.202Z,10.00
2022-09-16T15:36:50.174Z,11.00
2022-09-16T15:39:22.641Z,14.00
2022-09-16T15:42:02.116Z,12.33
2022-09-16T15:44:33.838Z,11.00
2022-09-16T15:47:04.674Z,11.00
2022-09-16T15:49:36.541Z,11.50
2022-09-16T15:52:07.218Z,8.67
2022-09-16T15:54:45.637Z,10.50
2022-09-16T15:57:28.706Z,9.67
2022-09-16T16:00:13.042Z,13.00
2022-09-16T16:02:53.583Z,12.00
2022-09-16T16:05:23.441Z,10.33
2022-09-16T16:07:52.947Z,12.00
2022-09-16T16:10:23.022Z,9.00
2022-09-16T16:12:51.943Z,10.67
2022-09-16T16:15:21.699Z,10.00
2022-09-16T16:17:50.130Z,9.00
2022-09-16T16:20:18.140Z,10.00
2022-09-16T16:22:46.343Z,11.00
2022-09-16T16:25:14.466Z,13.00
2022-09-16T16:27:42.540Z,9.00
2022-09-16T16:30:11.217Z,11.00
2022-09-16T16:32:40.217Z,10.50
2022-09-16T16:35:08.391Z,11.00
2022-09-16T16:37:52.246Z,13.00
2022-09-16T16:40:20.945Z,13.67
2022-09-16T16:42:48.773Z,13.50
2022-09-16T16:45:16.859Z,14.00
2022-09-16T16:47:44.716Z,12.00
2022-09-16T16:50:12.594Z,11.50
2022-09-16T16:52:40.349Z,12.00
2022-09-16T16:55:08.492Z,10.00
2022-09-16T16:57:36.493Z,12.00
2022-09-16T17:00:05.599Z,11.00
2022-09-16T17:02:33.705Z,11.00
2022-09-16T17:05:01.737Z,9.00
2022-09-16T17:07:29.919Z,9.00
2022-09-16T17:09:58.805Z,8.00
2022-09-16T17:12:27.196Z,10.00
2022-09-16T17:14:55.128Z,9.00
2022-09-16T17:17:25.383Z,10.00
2022-09-16T17:19:56.824Z,12.00
2022-09-16T17:22:24.710Z,9.00
2022-09-16T17:24:52.448Z,10.00
2022-09-16T17:27:20.826Z,9.00
2022-09-16T17:29:48.802Z,8.00
2022-09-16T17:32:16.846Z,11.00
2022-09-16T17:34:44.956Z,10.00
2022-09-16T17:37:14.665Z,10.00
2022-09-16T17:39:42.648Z,9.00
2022-09-16T17:42:10.508Z,11.00
2022-09-16T17:44:38.875Z,11.50
2022-09-16T17:47:06.940Z,11.00
2022-09-16T17:49:34.713Z,10.00
2022-09-16T17:52:02.623Z,11.00
2022-09-16T17:54:30.471Z,13.00
2022-09-16T17:56:58.414Z,10.00
2022-09-16T17:59:26.383Z,11.00
2022-09-16T18:01:54.268Z,10.00
2022-09-16T18:04:22.517Z,10.00
2022-09-16T18:06:51.251Z,10.00
2022-09-16T18:09:19.077Z,10.00
2022-09-16T18:11:47.458Z,10.00
2022-09-16T18:14:17.253Z,12.67
2022-09-16T18:16:48.101Z,17.00
2022-09-16T18:19:16.067Z,13.00
2022-09-16T18:21:43.940Z,17.33
2022-09-16T18:24:13.166Z,15.00
2022-09-16T18:26:42.331Z,15.67
2022-09-16T18:29:12.174Z,13.00
2022-09-16T18:31:45.542Z,12.00
2022-09-16T18:34:14.253Z,12.00
2022-09-16T18:36:42.524Z,10.00
2022-09-16T18:39:15.197Z,11.00
2022-09-16T18:41:45.101Z,10.00
2022-09-16T18:44:17.480Z,11.00
2022-09-16T18:46:45.604Z,13.00
2022-09-16T18:49:15.049Z,12.50
2022-09-16T18:51:50.977Z,15.00
2022-09-16T18:54:28.732Z,13.00
2022-09-16T18:56:57.697Z,12.00
2022-09-16T18:59:28.464Z,11.00
2022-09-16T19:01:58.054Z,11.50
2022-09-16T19:04:28.477Z,14.00
2022-09-16T19:06:59.367Z,13.00
2022-09-16T19:09:27.377Z,13.00
2022-09-16T19:11:56.365Z,13.67
2022-09-16T19:14:27.606Z,13.00
2022-09-16T19:16:55.475Z,14.00
2022-09-16T19:19:23.553Z,12.00
2022-09-16T19:21:51.291Z,13.00
2022-09-16T19:24:21.272Z,13.00
2022-09-16T19:26:50.538Z,12.00
2022-09-16T19:29:18.907Z,14.00
2022-09-16T19:31:48.522Z,11.00
2022-09-16T19:34:16.698Z,12.00
2022-09-16T19:36:44.998Z,12.00
2022-09-16T19:39:13.366Z,12.67
2022-09-16T19:41:42.244Z,13.00
2022-09-16T19:44:12.323Z,12.00
2022-09-16T19:46:42.799Z,14.67
2022-09-16T19:49:14.579Z,12.00
2022-09-16T19:51:43.239Z,13.00
2022-09-16T19:54:11.147Z,15.00
2022-09-16T19:56:39.172Z,15.00
2022-09-16T19:59:07.460Z,12.00
2022-09-16T20:01:35.919Z,13.50
2022-09-16T20:04:05.120Z,12.00
2022-09-16T20:06:35.023Z,13.50
2022-09-16T20:09:04.743Z,14.67
2022-09-16T20:11:34.562Z,13.00
2022-09-16T20:14:04.579Z,12.00
2022-09-16T20:16:35.997Z,13.00
2022-09-16T20:19:05.127Z,12.00
2022-09-16T20:21:36.017Z,11.00
2022-09-16T20:24:07.919Z,13.50
2022-09-16T20:26:36.128Z,13.00
2022-09-16T20:29:04.575Z,12.00
2022-09-16T20:31:33.926Z,10.50
2022-09-16T20:34:02.567Z,14.00
2022-09-16T20:36:31.356Z,13.00
2022-09-16T20:39:00.378Z,12.00
2022-09-16T20:41:30.276Z,12.00
2022-09-16T20:43:59.548Z,14.00
2022-09-16T20:46:36.998Z,12.50
2022-09-16T20:49:06.667Z,32.00
2022-09-16T20:51:35.250Z,21.00
2022-09-16T20:54:07.345Z,17.00
2022-09-16T20:56:40.167Z,16.00
2022-09-16T20:59:09.189Z,17.00
2022-09-16T21:01:37.575Z,13.50
2022-09-16T21:04:07.388Z,14.00
2022-09-16T21:06:36.071Z,13.00
2022-09-16T21:09:05.569Z,12.00
2022-09-16T21:11:33.650Z,11.00
2022-09-16T21:14:07.750Z,12.50
2022-09-16T21:16:37.030Z,12.00
2022-09-16T21:19:06.941Z,12.00
2022-09-16T21:21:34.699Z,12.00
2022-09-16T21:24:02.811Z,12.00
2022-09-16T21:26:34.154Z,15.00
2022-09-16T21:29:03.256Z,13.00
2022-09-16T21:31:35.148Z,12.00
2022-09-16T21:34:03.597Z,12.00
2022-09-16T21:36:31.334Z,13.00
2022-09-16T21:38:59.595Z,12.00
2022-09-16T21:41:28.632Z,14.00
2022-09-16T21:43:57.488Z,13.00
2022-09-16T21:46:27.069Z,12.00
2022-09-16T21:48:57.606Z,13.33
2022-09-16T21:51:26.147Z,12.00
2022-09-16T21:53:55.234Z,12.50
2022-09-16T21:56:23.618Z,12.00
2022-09-16T21:58:54.426Z,12.00
2022-09-16T22:01:23.660Z,13.00
2022-09-16T22:03:56.118Z,13.00
2022-09-16T22:06:27.368Z,12.67
2022-09-16T22:08:56.258Z,15.50
2022-09-16T22:11:25.559Z,12.00
2022-09-16T22:13:54.146Z,11.00
2022-09-16T22:16:27.204Z,14.00
2022-09-16T22:18:55.506Z,11.00
2022-09-16T22:21:24.910Z,13.00
2022-09-16T22:23:53.193Z,14.00
2022-09-16T22:26:22.177Z,13.00
2022-09-16T22:28:50.355Z,14.00
2022-09-16T22:31:20.193Z,14.00
2022-09-16T22:33:48.918Z,14.00
2022-09-16T22:36:18.765Z,13.00
2022-09-16T22:38:51.751Z,12.00
2022-09-16T22:41:20.131Z,14.50
2022-09-16T22:43:48.770Z,11.00
2022-09-16T22:46:20.618Z,11.00
2022-09-16T22:48:49.341Z,13.00
2022-09-16T22:51:18.468Z,11.00
2022-09-16T22:53:46.555Z,10.00
2022-09-16T22:56:18.875Z,10.33
2022-09-16T22:58:47.179Z,12.50
2022-09-16T23:01:16.698Z,11.00
2022-09-16T23:03:45.483Z,13.00
2022-09-16T23:06:14.673Z,12.00
2022-09-16T23:08:45.595Z,11.00
2022-09-16T23:11:15.345Z,13.00
2022-09-16T23:13:43.597Z,12.33
2022-09-16T23:16:15.960Z,13.00
2022-09-16T23:18:44.510Z,12.00
2022-09-16T23:21:13.383Z,14.00
2022-09-16T23:23:42.853Z,11.00
2022-09-16T23:26:12.048Z,13.00
2022-09-16T23:28:39.794Z,13.00
2022-09-16T23:31:10.403Z,11.00
2022-09-16T23:33:38.966Z,11.00
2022-09-16T23:36:07.593Z,17.00
2022-09-16T23:38:36.661Z,15.00
2022-09-16T23:41:05.374Z,14.00
2022-09-16T23:43:33.158Z,17.00
2022-09-16T23:46:02.149Z,15.00
2022-09-16T23:48:30.527Z,14.50
2022-09-16T23:50:59.146Z,13.00
2022-09-16T23:53:26.910Z,11.00
2022-09-16T23:55:54.847Z,14.00
2022-09-16T23:58:22.716Z,12.00
